createdAt,value
2019-01-12T00:01:18.637Z,86.22
2019-01-12T00:03:49.228Z,85.81
2019-01-12T00:06:19.678Z,86.01
2019-01-12T00:08:50.189Z,85.50
2019-01-12T00:11:20.659Z,85.47
2019-01-12T00:13:51.134Z,85.19
2019-01-12T00:16:21.614Z,85.01
2019-01-12T00:18:52.067Z,84.99
2019-01-12T00:21:22.578Z,85.34
2019-01-12T00:23:54.300Z,86.03
2019-01-12T00:26:25.062Z,86.30
2019-01-12T00:28:55.839Z,86.26
2019-01-12T00:31:26.326Z,86.29
2019-01-12T00:33:57.131Z,86.30
2019-01-12T00:36:27.743Z,86.60
2019-01-12T00:38:58.187Z,86.64
2019-01-12T00:41:28.670Z,86.30
2019-01-12T00:43:59.430Z,86.00
2019-01-12T00:46:29.923Z,86.11
2019-01-12T00:49:00.651Z,86.12
2019-01-12T00:51:31.492Z,85.68
2019-01-12T00:54:01.960Z,85.14
2019-01-12T00:56:32.403Z,84.98
2019-01-12T00:59:02.883Z,84.62
2019-01-12T01:01:33.333Z,84.51
2019-01-12T01:04:04.083Z,84.91
2019-01-12T01:06:34.557Z,84.88
2019-01-12T01:09:08.991Z,85.02
2019-01-12T01:11:39.475Z,84.96
2019-01-12T01:14:09.918Z,85.13
2019-01-12T01:16:40.694Z,84.92
2019-01-12T01:19:11.185Z,84.69
2019-01-12T01:21:41.629Z,84.57
2019-01-12T01:24:12.137Z,84.07
2019-01-12T01:26:42.581Z,84.39
2019-01-12T01:29:13.322Z,84.23
2019-01-12T01:31:44.091Z,84.51
2019-01-12T01:34:14.719Z,84.73
2019-01-12T01:36:45.492Z,84.69
2019-01-12T01:39:15.937Z,84.84
2019-01-12T01:41:46.388Z,84.70
2019-01-12T01:44:16.864Z,84.92
2019-01-12T01:46:47.316Z,85.34
2019-01-12T01:49:18.092Z,85.18
2019-01-12T01:51:48.532Z,85.03
2019-01-12T01:54:18.986Z,85.20
2019-01-12T01:56:49.761Z,84.92
2019-01-12T01:59:20.209Z,84.80
2019-01-12T02:01:50.680Z,84.32
2019-01-12T02:04:21.426Z,83.91
2019-01-12T02:06:52.230Z,83.82
2019-01-12T02:09:22.952Z,83.66
2019-01-12T02:11:53.391Z,83.37
2019-01-12T02:14:24.652Z,83.33
2019-01-12T02:16:55.115Z,83.44
2019-01-12T02:19:25.603Z,83.38
2019-01-12T02:21:56.059Z,83.56
2019-01-12T02:24:26.506Z,83.81
2019-01-12T02:26:56.978Z,83.93
2019-01-12T02:29:27.422Z,83.88
2019-01-12T02:31:57.895Z,84.15
2019-01-12T02:34:28.336Z,84.31
2019-01-12T02:36:59.133Z,84.51
2019-01-12T02:39:30.066Z,84.69
2019-01-12T02:42:00.892Z,84.57
2019-01-12T02:44:31.373Z,84.84
2019-01-12T02:47:01.813Z,84.91
2019-01-12T02:49:32.308Z,84.95
2019-01-12T02:52:03.061Z,84.78
2019-01-12T02:54:33.511Z,84.92
2019-01-12T02:57:03.983Z,85.38
2019-01-12T02:59:34.792Z,84.84
2019-01-12T03:02:05.609Z,84.98
2019-01-12T03:04:36.052Z,84.90
2019-01-12T03:07:06.621Z,84.84
2019-01-12T03:09:37.088Z,84.67
2019-01-12T03:12:08.128Z,84.45
2019-01-12T03:14:38.624Z,84.66
2019-01-12T03:17:09.093Z,84.76
2019-01-12T03:19:39.530Z,84.92
2019-01-12T03:22:10.071Z,85.58
2019-01-12T03:24:40.526Z,85.56
2019-01-12T03:27:11.002Z,86.06
2019-01-12T03:29:42.024Z,86.04
2019-01-12T03:32:12.475Z,86.15
2019-01-12T03:34:42.939Z,86.26
2019-01-12T03:37:13.376Z,86.64
2019-01-12T03:39:43.869Z,86.86
2019-01-12T03:42:14.414Z,87.44
2019-01-12T03:44:44.848Z,88.02
2019-01-12T03:47:15.317Z,88.37
2019-01-12T03:49:45.903Z,88.99
2019-01-12T03:52:16.382Z,89.31
2019-01-12T03:54:47.116Z,89.23
2019-01-12T03:57:17.706Z,89.46
2019-01-12T03:59:48.745Z,89.38
2019-01-12T04:02:19.189Z,89.47
2019-01-12T04:04:49.966Z,90.03
2019-01-12T04:07:20.405Z,90.10
2019-01-12T04:09:50.844Z,90.24
2019-01-12T04:12:21.314Z,90.17
2019-01-12T04:14:52.048Z,90.39
2019-01-12T04:17:22.516Z,90.50
2019-01-12T04:19:53.000Z,90.85
2019-01-12T04:22:23.446Z,90.63
2019-01-12T04:24:53.910Z,91.23
2019-01-12T04:27:24.392Z,91.36
2019-01-12T04:29:54.828Z,91.32
2019-01-12T04:32:25.538Z,91.10
2019-01-12T04:34:56.016Z,91.52
2019-01-12T04:37:26.443Z,91.67
2019-01-12T04:39:56.882Z,92.12
2019-01-12T04:42:27.369Z,92.50
2019-01-12T04:44:57.828Z,92.87
2019-01-12T04:47:28.263Z,93.60
2019-01-12T04:49:58.792Z,94.01
2019-01-12T04:52:29.280Z,94.36
2019-01-12T04:54:59.718Z,94.74
2019-01-12T04:57:30.201Z,94.29
2019-01-12T05:00:00.682Z,94.49
2019-01-12T05:02:31.100Z,94.25
2019-01-12T05:05:01.593Z,94.04
2019-01-12T05:07:32.034Z,93.91
2019-01-12T05:10:02.483Z,93.52
2019-01-12T05:12:33.267Z,93.18
2019-01-12T05:15:04.173Z,93.01
2019-01-12T05:17:34.642Z,93.15
2019-01-12T05:20:07.152Z,93.04
2019-01-12T05:22:37.909Z,93.48
2019-01-12T05:25:08.564Z,93.53
2019-01-12T05:27:39.056Z,93.14
2019-01-12T05:30:12.213Z,93.05
2019-01-12T05:32:42.826Z,92.80
2019-01-12T05:35:13.785Z,92.72
2019-01-12T05:37:44.510Z,92.63
2019-01-12T05:40:15.208Z,92.61
2019-01-12T05:42:45.648Z,92.54
2019-01-12T05:45:16.193Z,92.20
2019-01-12T05:47:46.674Z,92.61
2019-01-12T05:50:17.115Z,92.75
2019-01-12T05:52:47.606Z,92.46
2019-01-12T05:55:18.363Z,92.70
2019-01-12T05:57:48.807Z,92.59
2019-01-12T06:00:21.331Z,92.60
2019-01-12T06:02:52.111Z,92.39
2019-01-12T06:05:22.611Z,92.82
2019-01-12T06:07:53.064Z,93.41
2019-01-12T06:10:23.499Z,93.66
2019-01-12T06:12:53.965Z,93.83
2019-01-12T06:15:24.451Z,93.92
2019-01-12T06:17:55.234Z,94.24
2019-01-12T06:20:25.679Z,94.31
2019-01-12T06:22:56.122Z,94.20
2019-01-12T06:25:26.596Z,94.03
2019-01-12T06:27:57.044Z,93.55
2019-01-12T06:30:28.126Z,93.63
2019-01-12T06:32:58.941Z,93.05
2019-01-12T06:35:29.418Z,92.85
2019-01-12T06:37:59.845Z,92.65
2019-01-12T06:40:30.286Z,92.68
2019-01-12T06:43:00.775Z,92.64
2019-01-12T06:45:31.213Z,92.59
2019-01-12T06:48:01.972Z,92.19
2019-01-12T06:50:32.753Z,92.09
2019-01-12T06:53:03.197Z,92.12
2019-01-12T06:55:33.856Z,91.81
2019-01-12T06:58:04.324Z,91.39
2019-01-12T07:00:35.142Z,91.28
2019-01-12T07:03:06.016Z,91.23
2019-01-12T07:05:36.454Z,90.75
2019-01-12T07:08:06.949Z,90.38
2019-01-12T07:10:37.384Z,90.29
2019-01-12T07:13:07.823Z,90.23
2019-01-12T07:15:39.089Z,90.00
2019-01-12T07:18:09.542Z,89.67
2019-01-12T07:20:40.319Z,90.24
2019-01-12T07:23:10.794Z,90.06
2019-01-12T07:25:41.229Z,89.93
2019-01-12T07:28:11.700Z,89.82
2019-01-12T07:30:42.142Z,89.62
2019-01-12T07:33:12.608Z,89.72
2019-01-12T07:35:43.045Z,90.12
2019-01-12T07:38:13.545Z,89.79
2019-01-12T07:40:43.973Z,89.70
2019-01-12T07:43:14.429Z,89.59
2019-01-12T07:45:45.204Z,89.37
2019-01-12T07:48:15.634Z,89.57
2019-01-12T07:50:46.115Z,89.64
2019-01-12T07:53:16.544Z,89.87
2019-01-12T07:55:46.981Z,89.37
2019-01-12T07:58:17.454Z,89.11
2019-01-12T08:00:47.884Z,89.73
2019-01-12T08:03:18.363Z,89.72
2019-01-12T08:05:48.797Z,89.85
2019-01-12T08:08:19.234Z,90.15
2019-01-12T08:10:49.693Z,90.14
2019-01-12T08:13:20.430Z,89.91
2019-01-12T08:15:50.965Z,89.99
2019-01-12T08:18:21.584Z,89.89
2019-01-12T08:20:52.584Z,90.39
2019-01-12T08:23:23.051Z,90.75
2019-01-12T08:25:53.663Z,90.97
2019-01-12T08:28:24.159Z,91.48
2019-01-12T08:30:54.599Z,91.51
2019-01-12T08:33:25.123Z,91.88
2019-01-12T08:35:55.894Z,92.29
2019-01-12T08:38:26.345Z,92.14
2019-01-12T08:40:56.822Z,91.98
2019-01-12T08:43:27.627Z,91.46
2019-01-12T08:45:58.339Z,91.30
2019-01-12T08:48:28.785Z,91.01
2019-01-12T08:50:59.220Z,90.75
2019-01-12T08:53:29.987Z,90.62
2019-01-12T08:56:00.411Z,90.57
2019-01-12T08:58:30.846Z,90.32
2019-01-12T09:01:01.373Z,90.42
2019-01-12T09:03:31.867Z,90.99
2019-01-12T09:06:02.589Z,91.36
2019-01-12T09:08:33.012Z,91.39
2019-01-12T09:11:03.479Z,91.97
2019-01-12T09:13:33.952Z,91.94
2019-01-12T09:16:04.471Z,92.12
2019-01-12T09:18:35.263Z,92.33
2019-01-12T09:21:05.694Z,92.54
2019-01-12T09:23:36.128Z,92.67
2019-01-12T09:26:06.608Z,91.66
2019-01-12T09:28:37.058Z,91.98
2019-01-12T09:31:07.535Z,91.78
2019-01-12T09:33:37.992Z,91.13
2019-01-12T09:36:08.431Z,90.76
2019-01-12T09:38:39.895Z,90.53
2019-01-12T09:41:10.345Z,90.02
2019-01-12T09:43:41.121Z,89.93
2019-01-12T09:46:11.856Z,90.06
2019-01-12T09:48:42.354Z,89.32
2019-01-12T09:51:13.254Z,88.98
2019-01-12T09:53:43.723Z,89.06
2019-01-12T09:56:14.227Z,88.78
2019-01-12T09:58:44.659Z,89.42
2019-01-12T10:01:15.100Z,89.68
2019-01-12T10:03:45.566Z,89.46
2019-01-12T10:06:16.310Z,89.51
2019-01-12T10:08:46.752Z,89.56
2019-01-12T10:11:17.520Z,89.34
2019-01-12T10:13:48.218Z,89.51
2019-01-12T10:16:18.682Z,89.98
2019-01-12T10:18:49.506Z,89.90
2019-01-12T10:21:20.228Z,90.08
2019-01-12T10:23:50.669Z,90.13
2019-01-12T10:26:21.632Z,90.27
2019-01-12T10:28:52.093Z,90.19
2019-01-12T10:31:22.590Z,90.03
2019-01-12T10:33:53.030Z,90.12
2019-01-12T10:36:23.483Z,90.72
2019-01-12T10:38:53.952Z,90.47
2019-01-12T10:41:24.759Z,91.20
2019-01-12T10:43:55.653Z,91.11
2019-01-12T10:46:26.101Z,91.26
2019-01-12T10:48:56.834Z,91.20
2019-01-12T10:51:27.310Z,91.17
2019-01-12T10:53:57.811Z,91.69
2019-01-12T10:56:28.329Z,92.21
2019-01-12T10:58:58.768Z,92.21
2019-01-12T11:01:29.557Z,92.20
2019-01-12T11:04:00.054Z,92.71
2019-01-12T11:06:30.521Z,92.94
2019-01-12T11:09:01.324Z,93.21
2019-01-12T11:11:32.082Z,93.46
2019-01-12T11:14:02.862Z,93.96
2019-01-12T11:16:33.366Z,93.79
2019-01-12T11:19:03.891Z,93.94
2019-01-12T11:21:34.376Z,94.25
2019-01-12T11:24:05.245Z,94.02
2019-01-12T11:26:35.711Z,93.85
2019-01-12T11:29:06.196Z,93.62
2019-01-12T11:31:36.648Z,93.34
2019-01-12T11:34:07.142Z,93.48
2019-01-12T11:36:37.583Z,93.56
2019-01-12T11:39:08.591Z,93.69
2019-01-12T11:41:39.064Z,93.89
2019-01-12T11:44:09.508Z,94.49
2019-01-12T11:46:40.009Z,94.96
2019-01-12T11:49:10.471Z,95.41
2019-01-12T11:51:40.936Z,95.27
2019-01-12T11:54:11.414Z,95.28
2019-01-12T11:56:42.185Z,95.36
2019-01-12T11:59:12.857Z,95.30
2019-01-12T12:01:43.314Z,95.14
2019-01-12T12:04:13.872Z,95.09
2019-01-12T12:06:44.344Z,94.99
2019-01-12T12:09:14.837Z,94.89
2019-01-12T12:11:45.621Z,95.19
2019-01-12T12:14:16.393Z,95.15
2019-01-12T12:16:46.885Z,95.82
2019-01-12T12:19:17.373Z,94.99
2019-01-12T12:21:48.093Z,94.69
2019-01-12T12:24:18.900Z,94.96
2019-01-12T12:26:49.639Z,95.20
2019-01-12T12:29:20.151Z,95.06
2019-01-12T12:31:50.722Z,95.11
2019-01-12T12:34:21.181Z,95.37
2019-01-12T12:36:52.158Z,95.14
2019-01-12T12:39:22.604Z,95.36
2019-01-12T12:41:53.333Z,95.20
2019-01-12T12:44:24.177Z,95.37
2019-01-12T12:46:54.648Z,95.70
2019-01-12T12:49:25.453Z,95.98
2019-01-12T12:51:55.901Z,95.86
2019-01-12T12:54:26.813Z,95.83
2019-01-12T12:56:57.307Z,95.52
2019-01-12T12:59:27.756Z,95.13
2019-01-12T13:01:58.201Z,95.31
2019-01-12T13:04:28.723Z,94.53
2019-01-12T13:06:59.173Z,94.88
2019-01-12T13:09:29.932Z,94.78
2019-01-12T13:12:00.424Z,94.74
2019-01-12T13:14:30.873Z,94.69
2019-01-12T13:17:01.346Z,94.73
2019-01-12T13:19:32.036Z,95.06
2019-01-12T13:22:04.129Z,95.38
2019-01-12T13:24:34.571Z,95.78
2019-01-12T13:27:05.174Z,95.93
2019-01-12T13:29:35.627Z,96.27
2019-01-12T13:32:06.177Z,96.19
2019-01-12T13:34:36.967Z,96.41
2019-01-12T13:37:07.520Z,96.74
2019-01-12T13:39:37.959Z,96.59
2019-01-12T13:42:08.460Z,96.81
2019-01-12T13:44:38.908Z,96.65
2019-01-12T13:47:09.713Z,96.38
2019-01-12T13:49:40.220Z,96.49
2019-01-12T13:52:10.667Z,96.82
2019-01-12T13:54:41.478Z,96.61
2019-01-12T13:57:13.505Z,96.76
2019-01-12T13:59:44.063Z,96.39
2019-01-12T14:02:14.724Z,96.16
2019-01-12T14:04:45.249Z,96.23
2019-01-12T14:07:15.699Z,96.08
2019-01-12T14:09:46.144Z,95.77
2019-01-12T14:12:16.597Z,95.62
2019-01-12T14:14:47.036Z,95.33
2019-01-12T14:17:17.912Z,95.45
2019-01-12T14:19:48.350Z,95.27
2019-01-12T14:22:19.084Z,95.47
2019-01-12T14:24:49.834Z,95.75
2019-01-12T14:27:20.560Z,95.15
2019-01-12T14:29:51.039Z,94.75
2019-01-12T14:32:21.762Z,94.95
2019-01-12T14:34:52.196Z,95.08
2019-01-12T14:37:23.489Z,95.02
2019-01-12T14:39:54.224Z,95.04
2019-01-12T14:42:24.701Z,94.99
2019-01-12T14:44:55.803Z,94.54
2019-01-12T14:47:26.236Z,94.29
2019-01-12T14:49:56.719Z,94.85
2019-01-12T14:52:27.161Z,94.99
2019-01-12T14:54:57.948Z,95.04
2019-01-12T14:57:28.375Z,95.04
2019-01-12T14:59:58.842Z,95.10
2019-01-12T15:02:29.637Z,94.95
2019-01-12T15:05:00.375Z,95.07
2019-01-12T15:07:30.845Z,95.25
2019-01-12T15:10:01.279Z,95.02
2019-01-12T15:12:31.711Z,94.87
2019-01-12T15:15:02.169Z,94.89
2019-01-12T15:17:32.625Z,94.91
2019-01-12T15:20:03.102Z,94.86
2019-01-12T15:22:33.544Z,95.01
2019-01-12T15:25:04.292Z,95.20
2019-01-12T15:27:34.744Z,95.20
2019-01-12T15:30:06.880Z,95.29
2019-01-12T15:32:37.379Z,95.15
2019-01-12T15:35:08.025Z,95.16
2019-01-12T15:37:38.457Z,95.20
2019-01-12T15:40:10.578Z,95.11
2019-01-12T15:42:41.005Z,95.03
2019-01-12T15:45:14.245Z,95.03
2019-01-12T15:47:44.695Z,95.32
2019-01-12T15:50:17.486Z,95.56
2019-01-12T15:52:48.240Z,95.52
2019-01-12T15:55:18.672Z,95.68
2019-01-12T15:57:49.141Z,95.84
2019-01-12T16:00:21.566Z,96.00
2019-01-12T16:02:52.305Z,96.03
2019-01-12T16:05:23.225Z,95.90
2019-01-12T16:07:53.656Z,95.63
2019-01-12T16:10:24.212Z,95.68
2019-01-12T16:12:54.750Z,95.54
2019-01-12T16:15:27.064Z,95.64
2019-01-12T16:17:58.651Z,95.86
2019-01-12T16:20:32.358Z,95.94
2019-01-12T16:23:03.188Z,95.89
2019-01-12T16:25:33.909Z,95.81
2019-01-12T16:28:04.441Z,95.95
2019-01-12T16:30:34.907Z,96.18
2019-01-12T16:33:05.539Z,96.26
2019-01-12T16:35:36.030Z,96.40
2019-01-12T16:38:06.806Z,96.74
2019-01-12T16:40:37.550Z,96.43
2019-01-12T16:43:08.379Z,96.56
2019-01-12T16:45:39.198Z,96.55
2019-01-12T16:48:09.722Z,96.32
2019-01-12T16:50:40.459Z,96.49
2019-01-12T16:53:10.906Z,96.42
2019-01-12T16:55:41.853Z,96.27
2019-01-12T16:58:12.289Z,96.05
2019-01-12T17:00:42.810Z,96.07
2019-01-12T17:03:13.549Z,95.94
2019-01-12T17:05:43.996Z,96.04
2019-01-12T17:08:14.494Z,96.10
2019-01-12T17:10:46.238Z,96.04
2019-01-12T17:13:16.729Z,95.81
2019-01-12T17:15:47.202Z,95.74
2019-01-12T17:18:17.932Z,96.16
2019-01-12T17:20:48.414Z,96.14
2019-01-12T17:23:19.977Z,95.79
2019-01-12T17:25:50.463Z,95.89
2019-01-12T17:28:21.190Z,95.66
2019-01-12T17:30:51.943Z,95.49
2019-01-12T17:33:22.401Z,95.60
2019-01-12T17:35:52.838Z,95.40
2019-01-12T17:38:23.311Z,95.08
2019-01-12T17:40:53.751Z,95.02
2019-01-12T17:43:24.200Z,94.63
2019-01-12T17:45:54.985Z,94.57
2019-01-12T17:48:25.700Z,94.22
2019-01-12T17:50:56.427Z,94.05
2019-01-12T17:53:27.375Z,93.54
2019-01-12T17:55:58.134Z,93.70
2019-01-12T17:58:28.572Z,93.77
2019-01-12T18:00:59.051Z,93.83
2019-01-12T18:03:29.483Z,93.39
2019-01-12T18:06:00.309Z,93.89
2019-01-12T18:08:31.162Z,93.64
2019-01-12T18:11:04.090Z,93.48
2019-01-12T18:13:34.510Z,93.62
2019-01-12T18:16:05.120Z,93.51
2019-01-12T18:18:35.926Z,93.32
2019-01-12T18:21:06.447Z,93.64
2019-01-12T18:23:38.179Z,93.70
2019-01-12T18:26:08.608Z,93.76
2019-01-12T18:28:39.036Z,93.56
2019-01-12T18:31:09.886Z,93.52
2019-01-12T18:33:40.318Z,93.72
2019-01-12T18:36:10.747Z,93.74
2019-01-12T18:38:41.523Z,93.88
2019-01-12T18:41:12.390Z,93.57
2019-01-12T18:43:42.877Z,93.48
2019-01-12T18:46:13.366Z,93.44
2019-01-12T18:48:43.807Z,92.97
2019-01-12T18:51:14.238Z,93.01
2019-01-12T18:53:44.993Z,92.59
2019-01-12T18:56:15.427Z,92.26
2019-01-12T18:58:45.859Z,92.43
2019-01-12T19:01:16.337Z,92.26
2019-01-12T19:03:47.151Z,92.23
2019-01-12T19:06:17.583Z,92.32
2019-01-12T19:08:48.368Z,92.10
2019-01-12T19:11:20.841Z,92.06
2019-01-12T19:13:51.545Z,92.42
2019-01-12T19:16:22.448Z,92.20
2019-01-12T19:18:52.867Z,92.49
2019-01-12T19:21:23.289Z,92.31
2019-01-12T19:23:54.052Z,92.29
2019-01-12T19:26:24.484Z,92.48
2019-01-12T19:28:54.917Z,92.62
2019-01-12T19:31:25.687Z,92.50
2019-01-12T19:33:56.085Z,92.29
2019-01-12T19:36:26.551Z,92.41
2019-01-12T19:38:56.991Z,92.37
2019-01-12T19:41:27.435Z,92.30
2019-01-12T19:43:58.243Z,92.26
2019-01-12T19:46:28.679Z,92.27
2019-01-12T19:48:59.100Z,92.17
2019-01-12T19:51:29.864Z,92.25
2019-01-12T19:54:00.591Z,92.25
2019-01-12T19:56:31.067Z,92.21
2019-01-12T19:59:01.528Z,92.36
2019-01-12T20:01:31.983Z,92.44
2019-01-12T20:04:02.776Z,92.13
2019-01-12T20:06:33.212Z,92.28
2019-01-12T20:09:06.796Z,91.94
2019-01-12T20:11:37.231Z,91.95
2019-01-12T20:14:08.541Z,91.78
2019-01-12T20:16:39.331Z,91.91
2019-01-12T20:19:10.323Z,91.84
2019-01-12T20:21:40.799Z,91.66
2019-01-12T20:24:11.519Z,91.62
2019-01-12T20:26:42.012Z,91.86
2019-01-12T20:29:12.553Z,91.86
2019-01-12T20:32:22.708Z,92.00
2019-01-12T20:35:20.759Z,91.76
2019-01-12T20:38:27.479Z,91.65
2019-01-12T20:41:36.213Z,91.71
2019-01-12T20:44:26.721Z,91.44
2019-01-12T20:47:34.628Z,91.28
2019-01-12T20:50:36.282Z,91.65
2019-01-12T20:53:39.381Z,91.64
2019-01-12T20:56:47.780Z,92.09
2019-01-12T20:59:38.041Z,91.84
2019-01-12T21:02:54.574Z,91.98
2019-01-12T21:05:58.792Z,92.14
2019-01-12T21:08:46.549Z,92.20
2019-01-12T21:12:00.692Z,92.53
2019-01-12T21:14:41.887Z,92.42
2019-01-12T21:17:14.707Z,92.29
2019-01-12T21:19:48.289Z,91.16
2019-01-12T21:22:23.151Z,90.92
2019-01-12T21:24:54.511Z,90.61
2019-01-12T21:27:27.454Z,90.45
2019-01-12T21:29:58.281Z,90.47
2019-01-12T21:32:28.875Z,90.16
2019-01-12T21:34:59.300Z,90.06
2019-01-12T21:37:30.063Z,89.92
2019-01-12T21:40:01.243Z,89.71
2019-01-12T21:42:31.669Z,89.28
2019-01-12T21:45:02.708Z,89.06
2019-01-12T21:47:33.153Z,89.09
2019-01-12T21:50:03.739Z,89.54
2019-01-12T21:52:34.156Z,89.12
2019-01-12T21:55:06.573Z,89.02
2019-01-12T21:57:37.852Z,88.98
2019-01-12T22:00:13.878Z,89.09
2019-01-12T22:02:44.432Z,89.20
2019-01-12T22:05:15.212Z,89.59
2019-01-12T22:07:46.285Z,89.58
2019-01-12T22:10:19.268Z,89.71
2019-01-12T22:12:49.446Z,89.47
2019-01-12T22:15:19.940Z,89.34
2019-01-12T22:17:51.172Z,89.47
2019-01-12T22:20:21.962Z,89.72
2019-01-12T22:22:52.878Z,89.85
2019-01-12T22:25:23.325Z,90.20
2019-01-12T22:27:56.303Z,90.13
2019-01-12T22:30:27.156Z,89.84
2019-01-12T22:32:57.599Z,90.25
2019-01-12T22:35:28.075Z,90.20
2019-01-12T22:37:58.540Z,90.22
2019-01-12T22:40:28.970Z,90.38
2019-01-12T22:42:59.848Z,90.31
2019-01-12T22:45:30.619Z,90.50
2019-01-12T22:48:01.047Z,90.17
2019-01-12T22:50:31.777Z,90.09
2019-01-12T22:53:02.336Z,90.14
2019-01-12T22:55:35.415Z,90.04
2019-01-12T22:58:05.858Z,90.13
2019-01-12T23:00:55.526Z,90.07
2019-01-12T23:03:26.334Z,89.83
2019-01-12T23:05:56.759Z,89.53
2019-01-12T23:08:27.224Z,89.16
2019-01-12T23:10:57.955Z,88.76
2019-01-12T23:13:28.451Z,89.10
2019-01-12T23:15:59.183Z,89.37
2019-01-12T23:18:29.607Z,89.19
2019-01-12T23:21:00.173Z,89.03
2019-01-12T23:23:30.593Z,89.23
2019-01-12T23:26:01.353Z,89.01
2019-01-12T23:28:31.809Z,88.85
2019-01-12T23:31:02.335Z,89.12
2019-01-12T23:33:32.791Z,88.88
2019-01-12T23:36:03.212Z,88.38
2019-01-12T23:38:33.856Z,88.33
2019-01-12T23:41:04.493Z,88.49
2019-01-12T23:43:34.942Z,88.55
2019-01-12T23:46:06.119Z,88.85
2019-01-12T23:48:36.541Z,89.25
2019-01-12T23:51:06.964Z,89.51
2019-01-12T23:53:37.731Z,89.39
2019-01-12T23:56:08.160Z,89.17
2019-01-12T23:58:38.584Z,89.01
